Friday, April 29, 2016
01:59 UTC
  |  Log In   |  Register Free
Airport Search:

Modesto City-Co-Harry Sham Fld Airport
(KMOD)

FAA data valid effective Mar 31 2016 - May 26 2016 (unless otherwise noted).

 
 
 
 
 
 
 
 
 
 
 
 
 
 
Current Aviation Weather for KMOD

Weather Summary


The most recent METAR observation for MOD was updated at: 12:53 UTC
METAR for KMOD is not available. Closest METAR is for KSCK
KMOD  (most recent observation was updatred at 29:01 UTC)
290153Z 28013KT 10SM CLR 24/07 A2984 RMK AO2 SLP106 T02440072 $

KSCK  (21.0 nm SE)   (most recent observation was updated at 29:01 UTC)
290155Z 26013KT 10SM CLR 22/08 A2985 RMK AO2 SLP108 T02170083

KMER  (23.6 nm NW)   (most recent observation was updated at 29:01 UTC)
290150Z 27007KT 10SM SKC MM/MM A2984

TAF for KMOD is not available.
KSCK  (21.0 nm SE)   (most recent observation was updatred at 28:23 UTC)
282326Z 2900/2924 31015G22KT P6SM SKC FM290300 28010KT P6SM SKC FM290800 30006KT P6SM SCT250 FM292200 29010G15KT P6SM SCT250


KMER  (23.6 nm NW)   (most recent observation was updatred at 28:23 UTC)
282322Z 2900/2924 01010KT P6SM SCT030 FM290400 30005KT P6SM SKC


KMCE  (29.3 nm NW)   (most recent observation was updatred at 28:23 UTC)
282322Z 2900/2924 VRB03KT P6SM SCT030 FM290400 30005KT P6SM SKC
GlobalAir.com is loading additional information.
 Current Weather at MOD
81.0 F° (27.2 C°)

Northwest winds at 15.0 mph
Pressure:
29.82 in
Humidity:
18%
Wind:
Northwest at 15.0 mph
Dew Point:
33.1 F° (0.6 C°)
Visibility:
10.00 mi
MOD NOAA Radar




Find All Airport Services Find A Hotel Find A Rental Car Find A Golf Course Find A Restaurant $100 Hamburger



Airport Weather Forecast for KMOD

Translated METAR for KMOD (0153 UTC)
METAR:
KMOD 290153Z 28013KT 10SM CLR 24/07 A2984 RMK AO2 SLP106 T02440072 $
Conditions at:
KMOD (Modesto City-Co-Harry Sham Fld, CA) observed 0153 UTC 28 April 2016
Temperature:
24°C (75.2°F)
Dewpoint:
7°C (44.6°F) [RH = 33.6]
Pressure:
29.84 inches Hg (1010.5 mb)
pressure at sea level is 106 in Hg
Winds:
from the W (280 degrees) at 15 mph (13 knots: 6.7 m/s)
Visibility:
10 mile(s)
Ceiling:
at least 12,000 feet AGL
Clouds:
Clear below 12,000 feet AGL
Remarks:
SOME DATA ABOVE MAY BE INACCURATE!!!
"$" is an indication the sensor requires maintenance
site is automated and HAS a precipitation sensor

Translated TAF for KSCK (Stockton Metropolitan, CA) (2326 UTC)
TAF text:
KSCK 282326Z 2900/2924 31015G22KT P6SM SKC
Forecast period:
Friday Apr 29 2016 00:00 UTC - Friday Apr 29 2016 24:00 UTC
Forecast type:
FROM: standard forecast or significant change
Winds:
from the NW (310 degrees) at 17.3 mph (15 knots: 7.7 m/s)
gusting to 25.3 mph (22 knots: 11.3 m/s)
Visibility:
6 or more mile(s) (9.7+ km)
Ceiling:
at least 12,000 feet AGL
Clouds:
Clear Skies
Weather:
no significant weather observed at this time
TAF text:
FM290300 28010KT P6SM SKC
Forecast period:
Friday Apr 29 2016 03:00 UTC - Friday Apr 29 2016 08:00 UTC
Forecast type:
FROM: standard forecast or significant change
Winds:
from the W (280 degrees) at 11.5 mph (10 knots: 5.1 m/s)
Visibility:
6 or more mile(s) (9.7+ km)
Ceiling:
at least 12,000 feet AGL
Clouds:
Clear Skies
Weather:
no significant weather observed at this time
TAF text:
FM290800 30006KT P6SM SCT250
Forecast period:
Friday Apr 29 2016 08:00 UTC - Friday Apr 29 2016 22:00 UTC
Forecast type:
FROM: standard forecast or significant change
Winds:
from the WNW (300 degrees) at 6.9 mph (6 knots: 3.1 m/s)
Visibility:
6 or more mile(s) (9.7+ km)
Ceiling:
at least 12,000 feet AGL
Clouds:
Scattered Clouds at 25,000 feet AGL
Weather:
no significant weather observed at this time
TAF text:
FM292200 29010G15KT P6SM SCT250
Forecast period:
Friday Apr 29 2016 22:00 UTC - Friday Apr 29 2016 24:00 UTC
Forecast type:
FROM: standard forecast or significant change
Winds:
from the WNW (290 degrees) at 11.5 mph (10 knots: 5.1 m/s)
gusting to 17.3 mph (15 knots: 7.7 m/s)
Visibility:
6 or more mile(s) (9.7+ km)
Ceiling:
at least 12,000 feet AGL
Clouds:
Scattered Clouds at 25,000 feet AGL
Weather:
no significant weather observed at this time
FBO's on the Field
FBO Company Facility Photos Services Transportation Aviation Fuel Prices: Prices include tax
Catering Weather Repair Courtesy Rental Type 100LL JetA JetA+ MOGAS 8087
 
Sky Trek Aviation

This FBO has not yet been rated
FS:Avfuel
Last Updated: Apr-21
Login to update fuel prices
SS:
Contact Sky Trek AviationMore FBO Information
 
Add another FBO Facility Photos Catering Weather Repair Courtesy Rental Type 100LL JetA JetA+ MOGAS 8087
Services Transportation Aviation Fuel Prices: Prices include tax


model-print
model-print
model-print
model-print